createdAt,value
2018-03-18T00:01:03.739Z,16.55
2018-03-18T00:03:31.309Z,16.64
2018-03-18T00:05:58.895Z,16.59
2018-03-18T00:08:26.973Z,16.37
2018-03-18T00:10:54.543Z,16.48
2018-03-18T00:13:22.984Z,16.36
2018-03-18T00:15:50.617Z,16.36
2018-03-18T00:18:18.552Z,16.35
2018-03-18T00:20:46.952Z,16.41
2018-03-18T00:23:14.495Z,16.43
2018-03-18T00:25:42.101Z,16.24
2018-03-18T00:28:09.641Z,16.27
2018-03-18T00:30:37.192Z,16.28
2018-03-18T00:33:04.776Z,16.15
2018-03-18T00:35:32.373Z,16.22
2018-03-18T00:37:59.955Z,16.22
2018-03-18T00:40:27.494Z,16.32
2018-03-18T00:42:55.076Z,16.43
2018-03-18T00:45:22.673Z,16.52
2018-03-18T00:47:50.284Z,16.59
2018-03-18T00:50:17.835Z,16.65
2018-03-18T00:52:46.293Z,16.59
2018-03-18T00:55:13.839Z,16.59
2018-03-18T00:57:41.834Z,16.62
2018-03-18T01:00:09.384Z,16.64
2018-03-18T01:02:36.972Z,16.66
2018-03-18T01:05:04.511Z,16.70
2018-03-18T01:07:32.477Z,16.77
2018-03-18T01:10:00.435Z,16.82
2018-03-18T01:12:27.991Z,16.85
2018-03-18T01:14:55.580Z,16.86
2018-03-18T01:17:23.128Z,16.88
2018-03-18T01:19:50.721Z,16.82
2018-03-18T01:22:18.259Z,16.71
2018-03-18T01:24:45.853Z,16.76
2018-03-18T01:27:13.399Z,16.76
2018-03-18T01:29:41.009Z,16.77
2018-03-18T01:32:08.563Z,16.73
2018-03-18T01:34:36.147Z,16.77
2018-03-18T01:37:03.699Z,16.83
2018-03-18T01:39:31.287Z,16.84
2018-03-18T01:41:58.845Z,16.84
2018-03-18T01:44:26.431Z,16.89
2018-03-18T01:46:54.020Z,16.93
2018-03-18T01:49:21.619Z,16.87
2018-03-18T01:51:49.162Z,16.91
2018-03-18T01:54:16.747Z,16.94
2018-03-18T01:56:44.760Z,16.93
2018-03-18T01:59:12.299Z,17.03
2018-03-18T02:01:40.391Z,17.47
2018-03-18T02:04:07.982Z,17.58
2018-03-18T02:06:35.532Z,17.52
2018-03-18T02:09:03.155Z,17.49
2018-03-18T02:11:30.748Z,17.44
2018-03-18T02:13:58.338Z,17.41
2018-03-18T02:16:25.888Z,17.40
2018-03-18T02:18:53.487Z,17.40
2018-03-18T02:21:21.028Z,17.48
2018-03-18T02:23:48.570Z,17.69
2018-03-18T02:26:16.700Z,18.36
2018-03-18T02:28:44.247Z,18.48
2018-03-18T02:31:11.835Z,18.63
2018-03-18T02:33:39.564Z,19.12
2018-03-18T02:36:07.128Z,19.49
2018-03-18T02:38:34.737Z,19.73
2018-03-18T02:41:02.871Z,19.82
2018-03-18T02:43:30.420Z,19.85
2018-03-18T02:45:57.988Z,19.97
2018-03-18T02:48:25.588Z,19.99
2018-03-18T02:50:53.190Z,19.91
2018-03-18T02:53:20.800Z,19.98
2018-03-18T02:55:48.652Z,20.00
2018-03-18T02:58:16.257Z,20.20
2018-03-18T03:00:44.384Z,20.18
2018-03-18T03:03:11.991Z,20.29
2018-03-18T03:05:39.538Z,20.64
2018-03-18T03:08:07.136Z,20.66
2018-03-18T03:10:34.739Z,20.53
2018-03-18T03:13:02.894Z,20.47
2018-03-18T03:15:30.453Z,20.57
2018-03-18T03:17:58.420Z,20.60
2018-03-18T03:20:26.031Z,20.53
2018-03-18T03:22:53.595Z,20.64
2018-03-18T03:25:21.189Z,20.50
2018-03-18T03:27:48.755Z,20.53
2018-03-18T03:30:16.353Z,20.62
2018-03-18T03:32:43.916Z,20.48
2018-03-18T03:35:11.511Z,20.49
2018-03-18T03:37:39.103Z,20.42
2018-03-18T03:40:06.867Z,20.40
2018-03-18T03:42:34.656Z,20.35
2018-03-18T03:45:02.221Z,20.25
2018-03-18T03:47:29.837Z,20.29
2018-03-18T03:49:57.393Z,20.23
2018-03-18T03:52:24.983Z,20.22
2018-03-18T03:54:52.582Z,20.16
2018-03-18T03:57:20.129Z,20.23
2018-03-18T03:59:48.534Z,20.26
2018-03-18T04:02:16.392Z,20.25
2018-03-18T04:04:45.288Z,20.25
2018-03-18T04:07:12.864Z,20.22
2018-03-18T04:09:40.462Z,20.17
2018-03-18T04:12:08.992Z,20.19
2018-03-18T04:14:37.249Z,20.14
2018-03-18T04:17:04.857Z,20.11
2018-03-18T04:19:33.004Z,20.12
2018-03-18T04:22:00.556Z,20.07
2018-03-18T04:24:28.153Z,20.06
2018-03-18T04:26:55.703Z,20.06
2018-03-18T04:29:23.320Z,20.00
2018-03-18T04:31:50.871Z,20.03
2018-03-18T04:34:18.468Z,20.02
2018-03-18T04:36:46.026Z,19.92
2018-03-18T04:39:13.626Z,19.85
2018-03-18T04:41:41.622Z,19.82
2018-03-18T04:44:09.227Z,19.81
2018-03-18T04:46:36.783Z,19.78
2018-03-18T04:49:05.183Z,19.78
2018-03-18T04:51:32.749Z,19.81
2018-03-18T04:54:01.277Z,19.81
2018-03-18T04:56:28.884Z,19.76
2018-03-18T04:58:56.552Z,19.74
2018-03-18T05:01:24.157Z,19.79
2018-03-18T05:03:51.708Z,19.85
2018-03-18T05:06:19.684Z,19.91
2018-03-18T05:08:48.040Z,19.92
2018-03-18T05:11:15.987Z,19.92
2018-03-18T05:13:43.588Z,19.88
2018-03-18T05:16:11.193Z,19.90
2018-03-18T05:18:38.750Z,19.87
2018-03-18T05:21:06.353Z,19.88
2018-03-18T05:23:33.916Z,19.89
2018-03-18T05:26:01.521Z,19.94
2018-03-18T05:28:29.084Z,19.91
2018-03-18T05:30:57.140Z,19.96
2018-03-18T05:33:24.768Z,19.98
2018-03-18T05:35:52.328Z,19.92
2018-03-18T05:38:20.674Z,20.02
2018-03-18T05:40:48.227Z,20.01
2018-03-18T05:43:15.844Z,20.05
2018-03-18T05:45:43.435Z,20.11
2018-03-18T05:48:10.982Z,20.09
2018-03-18T05:50:39.150Z,20.00
2018-03-18T05:53:06.696Z,19.91
2018-03-18T05:55:34.283Z,19.84
2018-03-18T05:58:02.145Z,19.85
2018-03-18T06:00:29.764Z,19.77
2018-03-18T06:02:57.481Z,19.69
2018-03-18T06:05:25.088Z,19.59
2018-03-18T06:07:53.304Z,19.59
2018-03-18T06:10:20.913Z,19.60
2018-03-18T06:12:49.005Z,19.63
2018-03-18T06:15:18.278Z,19.65
2018-03-18T06:17:46.211Z,19.60
2018-03-18T06:20:13.812Z,19.56
2018-03-18T06:22:41.953Z,19.49
2018-03-18T06:25:10.516Z,19.49
2018-03-18T06:27:38.107Z,19.42
2018-03-18T06:30:06.079Z,19.37
2018-03-18T06:32:33.723Z,19.34
2018-03-18T06:35:08.989Z,19.41
2018-03-18T06:37:36.997Z,19.38
2018-03-18T06:40:04.562Z,19.42
2018-03-18T06:42:32.159Z,19.38
2018-03-18T06:44:59.755Z,19.29
2018-03-18T06:47:27.365Z,19.22
2018-03-18T06:49:54.995Z,19.22
2018-03-18T06:52:22.600Z,19.21
2018-03-18T06:54:50.191Z,19.21
2018-03-18T06:57:17.756Z,19.25
2018-03-18T06:59:45.316Z,19.25
2018-03-18T07:02:12.907Z,19.22
2018-03-18T07:04:40.468Z,19.19
2018-03-18T07:07:08.072Z,19.20
2018-03-18T07:09:35.856Z,19.17
2018-03-18T07:12:03.483Z,19.22
2018-03-18T07:14:31.605Z,19.24
2018-03-18T07:16:59.456Z,19.25
2018-03-18T07:19:27.017Z,19.20
2018-03-18T07:21:55.153Z,19.25
2018-03-18T07:24:23.246Z,19.20
2018-03-18T07:26:50.803Z,19.16
2018-03-18T07:29:18.468Z,19.10
2018-03-18T07:31:46.028Z,19.08
2018-03-18T07:34:13.633Z,19.06
2018-03-18T07:36:41.192Z,19.04
2018-03-18T07:39:08.802Z,19.01
2018-03-18T07:41:36.410Z,18.98
2018-03-18T07:44:04.471Z,18.99
2018-03-18T07:46:32.024Z,18.98
2018-03-18T07:48:59.629Z,18.95
2018-03-18T07:51:27.200Z,18.94
2018-03-18T07:53:54.819Z,18.92
2018-03-18T07:56:22.386Z,18.91
2018-03-18T07:58:50.797Z,18.93
2018-03-18T08:01:18.347Z,18.91
2018-03-18T08:03:46.744Z,18.96
2018-03-18T08:06:14.299Z,18.99
2018-03-18T08:08:41.865Z,18.95
2018-03-18T08:11:09.451Z,18.84
2018-03-18T08:13:37.062Z,18.86
2018-03-18T08:16:05.027Z,18.81
2018-03-18T08:18:32.628Z,18.79
2018-03-18T08:21:02.175Z,18.81
2018-03-18T08:23:29.776Z,18.83
2018-03-18T08:25:58.210Z,18.81
2018-03-18T08:28:25.805Z,18.82
2018-03-18T08:30:53.937Z,18.82
2018-03-18T08:33:21.533Z,18.82
2018-03-18T08:35:49.603Z,18.85
2018-03-18T08:38:17.696Z,18.89
2018-03-18T08:40:45.605Z,18.89
2018-03-18T08:43:13.214Z,18.82
2018-03-18T08:45:40.845Z,18.82
2018-03-18T08:48:08.416Z,18.77
2018-03-18T08:50:36.196Z,18.79
2018-03-18T08:53:04.040Z,18.76
2018-03-18T08:55:31.658Z,18.74
2018-03-18T08:57:59.823Z,18.71
2018-03-18T09:00:27.420Z,18.71
2018-03-18T09:02:56.005Z,18.67
2018-03-18T09:05:24.492Z,18.69
2018-03-18T09:07:53.925Z,18.52
2018-03-18T09:10:21.488Z,18.56
2018-03-18T09:12:49.081Z,18.59
2018-03-18T09:15:17.258Z,18.60
2018-03-18T09:17:44.861Z,18.59
2018-03-18T09:20:13.089Z,18.56
2018-03-18T09:22:41.030Z,18.57
2018-03-18T09:25:08.632Z,18.59
2018-03-18T09:27:36.686Z,18.58
2018-03-18T09:30:04.312Z,18.61
2018-03-18T09:32:32.729Z,18.59
2018-03-18T09:35:00.284Z,18.62
2018-03-18T09:37:27.866Z,18.59
2018-03-18T09:39:55.421Z,18.65
2018-03-18T09:42:23.003Z,18.66
2018-03-18T09:44:50.846Z,18.73
2018-03-18T09:47:18.717Z,18.68
2018-03-18T09:49:46.323Z,18.63
2018-03-18T09:52:14.371Z,18.67
2018-03-18T09:54:42.279Z,18.62
2018-03-18T09:57:10.787Z,18.64
2018-03-18T09:59:38.378Z,18.64
2018-03-18T10:02:06.873Z,18.63
2018-03-18T10:04:35.118Z,18.62
2018-03-18T10:07:04.060Z,18.68
2018-03-18T10:09:31.653Z,18.66
2018-03-18T10:12:00.053Z,18.69
2018-03-18T10:14:27.606Z,18.68
2018-03-18T10:16:55.192Z,18.70
2018-03-18T10:19:23.420Z,18.71
2018-03-18T10:21:51.373Z,18.73
2018-03-18T10:24:19.596Z,18.77
2018-03-18T10:26:48.000Z,18.80
2018-03-18T10:29:15.597Z,18.80
2018-03-18T10:31:43.885Z,18.78
2018-03-18T10:34:12.230Z,18.74
2018-03-18T10:36:39.820Z,18.67
2018-03-18T10:39:07.677Z,18.71
2018-03-18T10:41:36.618Z,18.72
2018-03-18T10:44:04.868Z,18.73
2018-03-18T10:46:33.414Z,18.79
2018-03-18T10:49:00.969Z,18.78
2018-03-18T10:51:28.552Z,18.75
2018-03-18T10:53:56.615Z,18.76
2018-03-18T10:56:24.208Z,18.81
2018-03-18T10:58:51.747Z,18.70
2018-03-18T11:01:25.628Z,18.70
2018-03-18T11:03:58.934Z,18.68
2018-03-18T11:06:26.539Z,18.68
2018-03-18T11:08:56.383Z,18.71
2018-03-18T11:11:24.184Z,18.68
2018-03-18T11:13:52.235Z,18.67
2018-03-18T11:16:19.857Z,18.71
2018-03-18T11:18:47.985Z,18.63
2018-03-18T11:21:15.575Z,18.60
2018-03-18T11:23:43.156Z,18.60
2018-03-18T11:26:10.752Z,18.30
2018-03-18T11:28:38.358Z,18.17
2018-03-18T11:31:07.580Z,18.18
2018-03-18T11:33:35.177Z,18.21
2018-03-18T11:36:03.136Z,18.26
2018-03-18T11:38:32.204Z,17.88
2018-03-18T11:40:59.803Z,17.58
2018-03-18T11:43:28.078Z,17.16
2018-03-18T11:45:55.619Z,17.06
2018-03-18T11:48:24.529Z,16.98
2018-03-18T11:50:52.080Z,16.88
2018-03-18T11:53:19.695Z,16.73
2018-03-18T11:55:47.304Z,16.96
2018-03-18T11:58:14.921Z,17.09
2018-03-18T12:00:42.538Z,17.23
2018-03-18T12:03:10.132Z,17.33
2018-03-18T12:05:37.692Z,17.47
2018-03-18T12:08:06.153Z,17.54
2018-03-18T12:10:35.014Z,17.60
2018-03-18T12:13:03.332Z,17.72
2018-03-18T12:15:30.879Z,17.81
2018-03-18T12:17:59.699Z,17.84
2018-03-18T12:20:27.645Z,17.87
2018-03-18T12:22:55.233Z,17.83
2018-03-18T12:25:24.058Z,17.82
2018-03-18T12:27:51.867Z,17.85
2018-03-18T12:30:19.467Z,17.80
2018-03-18T12:32:47.051Z,17.84
2018-03-18T12:35:14.650Z,17.92
2018-03-18T12:37:42.396Z,17.88
2018-03-18T12:40:21.556Z,17.90
2018-03-18T12:43:01.077Z,17.92
2018-03-18T12:45:29.516Z,17.61
2018-03-18T12:47:57.116Z,17.46
2018-03-18T12:50:25.183Z,17.50
2018-03-18T12:52:53.372Z,17.52
2018-03-18T12:55:20.973Z,17.39
2018-03-18T12:57:48.541Z,17.37
2018-03-18T13:00:16.083Z,17.42
2018-03-18T13:02:44.165Z,17.43
2018-03-18T13:05:11.768Z,17.51
2018-03-18T13:07:39.336Z,17.53
2018-03-18T13:10:06.937Z,17.34
2018-03-18T13:12:34.510Z,16.84
2018-03-18T13:15:02.067Z,16.85
2018-03-18T13:17:29.992Z,16.82
2018-03-18T13:19:57.590Z,16.64
2018-03-18T13:22:25.145Z,16.81
2018-03-18T13:24:52.751Z,16.97
2018-03-18T13:27:20.321Z,17.07
2018-03-18T13:29:47.918Z,17.03
2018-03-18T13:32:15.480Z,16.78
2018-03-18T13:34:43.878Z,16.70
2018-03-18T13:37:11.434Z,16.82
2018-03-18T13:39:39.805Z,16.89
2018-03-18T13:42:08.355Z,16.97
2018-03-18T13:44:38.354Z,17.09
2018-03-18T13:47:05.925Z,17.12
2018-03-18T13:49:33.545Z,17.19
2018-03-18T13:52:01.101Z,17.29
2018-03-18T13:54:28.760Z,17.32
2018-03-18T13:56:56.464Z,17.25
2018-03-18T13:59:24.055Z,17.28
2018-03-18T14:01:51.620Z,17.45
2018-03-18T14:04:19.203Z,17.60
2018-03-18T14:06:47.600Z,17.59
2018-03-18T14:09:15.311Z,17.59
2018-03-18T14:11:42.910Z,17.59
2018-03-18T14:14:10.472Z,17.59
2018-03-18T14:16:38.850Z,17.63
2018-03-18T14:19:06.871Z,17.65
2018-03-18T14:21:34.441Z,17.70
2018-03-18T14:24:03.277Z,17.69
2018-03-18T14:26:30.876Z,17.70
2018-03-18T14:28:58.466Z,17.77
2018-03-18T14:31:27.001Z,17.83
2018-03-18T14:33:54.587Z,17.87
2018-03-18T14:36:22.188Z,17.55
2018-03-18T14:38:49.748Z,17.53
2018-03-18T14:41:17.336Z,17.46
2018-03-18T14:43:44.945Z,17.43
2018-03-18T14:46:14.254Z,17.58
2018-03-18T14:48:42.066Z,17.70
2018-03-18T14:51:09.616Z,17.81
2018-03-18T14:53:37.207Z,17.83
2018-03-18T14:56:05.577Z,17.87
2018-03-18T14:58:33.177Z,17.93
2018-03-18T15:01:00.734Z,17.98
2018-03-18T15:03:28.356Z,18.07
2018-03-18T15:05:55.908Z,18.13
2018-03-18T15:08:23.484Z,18.12
2018-03-18T15:10:51.068Z,18.05
2018-03-18T15:13:19.329Z,18.07
2018-03-18T15:15:46.918Z,18.07
2018-03-18T15:18:15.658Z,18.10
2018-03-18T15:20:43.270Z,18.13
2018-03-18T15:23:10.829Z,18.09
2018-03-18T15:25:38.830Z,17.99
2018-03-18T15:28:06.424Z,17.92
2018-03-18T15:30:34.695Z,17.91
2018-03-18T15:33:03.249Z,17.71
2018-03-18T15:35:31.036Z,17.51
2018-03-18T15:37:58.620Z,17.30
2018-03-18T15:40:27.545Z,17.16
2018-03-18T15:42:55.814Z,16.97
2018-03-18T15:45:24.857Z,16.83
2018-03-18T15:47:53.461Z,16.66
2018-03-18T15:50:24.613Z,16.54
2018-03-18T15:52:52.394Z,16.39
2018-03-18T15:55:19.944Z,16.40
2018-03-18T15:57:47.528Z,16.24
2018-03-18T16:00:15.732Z,16.14
2018-03-18T16:02:43.456Z,16.09
2018-03-18T16:05:11.126Z,16.11
2018-03-18T16:07:38.678Z,16.02
2018-03-18T16:10:07.222Z,15.94
2018-03-18T16:12:35.061Z,15.86
2018-03-18T16:15:03.044Z,15.84
2018-03-18T16:17:31.015Z,16.01
2018-03-18T16:19:59.703Z,15.90
2018-03-18T16:22:27.240Z,15.85
2018-03-18T16:24:55.830Z,15.98
2018-03-18T16:27:24.298Z,16.17
2018-03-18T16:30:03.807Z,16.31
2018-03-18T16:32:32.656Z,16.25
2018-03-18T16:35:00.199Z,16.29
2018-03-18T16:37:28.722Z,16.33
2018-03-18T16:39:56.316Z,16.43
2018-03-18T16:42:23.928Z,16.48
2018-03-18T16:44:51.502Z,16.59
2018-03-18T16:47:19.503Z,16.65
2018-03-18T16:49:47.947Z,16.68
2018-03-18T16:52:16.270Z,16.64
2018-03-18T16:54:45.624Z,16.66
2018-03-18T16:57:14.462Z,16.60
2018-03-18T16:59:42.617Z,16.53
2018-03-18T17:02:10.858Z,16.65
2018-03-18T17:04:39.582Z,16.74
2018-03-18T17:07:09.059Z,16.55
2018-03-18T17:09:37.437Z,16.54
2018-03-18T17:12:09.811Z,16.63
2018-03-18T17:14:39.104Z,16.60
2018-03-18T17:17:09.635Z,16.46
2018-03-18T17:19:38.891Z,16.42
2018-03-18T17:22:08.845Z,16.43
2018-03-18T17:24:37.558Z,16.27
2018-03-18T17:27:05.887Z,16.06
2018-03-18T17:29:34.776Z,15.86
2018-03-18T17:32:03.069Z,15.71
2018-03-18T17:34:32.277Z,15.82
2018-03-18T17:37:01.037Z,15.94
2018-03-18T17:39:30.675Z,16.07
2018-03-18T17:41:59.400Z,16.18
2018-03-18T17:44:40.982Z,16.07
2018-03-18T17:47:21.819Z,15.78
2018-03-18T17:50:02.521Z,15.46
2018-03-18T17:52:44.067Z,15.23
2018-03-18T17:55:26.272Z,15.41
2018-03-18T17:57:55.372Z,15.68
2018-03-18T18:00:24.562Z,15.86
2018-03-18T18:02:53.068Z,15.87
2018-03-18T18:05:23.162Z,15.89
2018-03-18T18:07:52.458Z,15.90
2018-03-18T18:10:21.454Z,15.93
2018-03-18T18:12:50.452Z,16.06
2018-03-18T18:15:19.373Z,16.13
2018-03-18T18:17:48.388Z,16.02
2018-03-18T18:20:17.380Z,16.13
2018-03-18T18:22:47.574Z,16.05
2018-03-18T18:25:16.897Z,15.95
2018-03-18T18:27:46.984Z,16.02
2018-03-18T18:30:15.879Z,16.02
2018-03-18T18:32:46.634Z,15.87
2018-03-18T18:35:15.294Z,15.88
2018-03-18T18:37:43.896Z,15.99
2018-03-18T18:40:13.619Z,16.06
2018-03-18T18:42:46.538Z,16.05
2018-03-18T18:45:15.276Z,15.88
2018-03-18T18:47:44.297Z,15.72
2018-03-18T18:50:13.022Z,15.67
2018-03-18T18:52:41.637Z,15.56
2018-03-18T18:55:14.257Z,15.57
2018-03-18T18:57:43.155Z,15.41
2018-03-18T19:00:12.364Z,15.42
2018-03-18T19:02:41.912Z,15.40
2018-03-18T19:05:10.333Z,15.26
2018-03-18T19:07:39.699Z,15.26
2018-03-18T19:10:08.948Z,15.16
2018-03-18T19:12:39.097Z,15.05
2018-03-18T19:15:09.396Z,15.10
2018-03-18T19:17:38.692Z,15.13
2018-03-18T19:20:07.738Z,15.27
2018-03-18T19:22:36.782Z,15.47
2018-03-18T19:25:05.679Z,15.44
2018-03-18T19:27:34.053Z,15.48
2018-03-18T19:30:04.277Z,15.62
2018-03-18T19:32:34.444Z,15.22
2018-03-18T19:35:03.284Z,14.95
2018-03-18T19:37:32.475Z,14.80
2018-03-18T19:40:01.312Z,14.69
2018-03-18T19:42:30.151Z,14.77
2018-03-18T19:44:59.643Z,14.77
2018-03-18T19:47:29.682Z,15.05
2018-03-18T19:49:58.696Z,15.22
2018-03-18T19:52:27.376Z,15.24
2018-03-18T19:54:56.083Z,15.16
2018-03-18T19:57:24.726Z,15.09
2018-03-18T19:59:55.251Z,14.95
2018-03-18T20:02:23.839Z,15.07
2018-03-18T20:04:52.931Z,14.92
2018-03-18T20:07:22.229Z,14.74
2018-03-18T20:09:51.892Z,14.52
2018-03-18T20:12:20.828Z,14.46
2018-03-18T20:14:50.030Z,14.48
2018-03-18T20:17:18.532Z,14.61
2018-03-18T20:19:48.369Z,14.71
2018-03-18T20:22:16.986Z,14.52
2018-03-18T20:24:45.514Z,14.49
2018-03-18T20:27:14.470Z,14.65
2018-03-18T20:29:42.676Z,14.83
2018-03-18T20:32:11.541Z,14.88
2018-03-18T20:34:40.846Z,15.05
2018-03-18T20:37:09.768Z,15.00
2018-03-18T20:39:38.517Z,15.07
2018-03-18T20:42:07.203Z,14.97
2018-03-18T20:44:35.886Z,14.58
2018-03-18T20:47:04.832Z,14.30
2018-03-18T20:49:33.584Z,14.24
2018-03-18T20:52:03.471Z,14.48
2018-03-18T20:54:32.627Z,14.66
2018-03-18T20:57:00.768Z,14.94
2018-03-18T20:59:29.229Z,15.14
2018-03-18T21:01:57.912Z,15.27
2018-03-18T21:04:26.291Z,15.43
2018-03-18T21:06:56.110Z,15.55
2018-03-18T21:09:24.478Z,15.65
2018-03-18T21:11:52.538Z,15.74
2018-03-18T21:14:20.423Z,15.79
2018-03-18T21:16:48.053Z,15.87
2018-03-18T21:19:16.104Z,15.91
2018-03-18T21:21:45.017Z,15.94
2018-03-18T21:24:13.154Z,16.01
2018-03-18T21:26:41.208Z,15.96
2018-03-18T21:29:09.727Z,15.97
2018-03-18T21:31:37.353Z,15.94
2018-03-18T21:34:05.708Z,15.93
2018-03-18T21:36:33.710Z,15.97
2018-03-18T21:39:01.301Z,16.00
2018-03-18T21:41:28.901Z,15.97
2018-03-18T21:43:57.109Z,16.00
2018-03-18T21:46:24.691Z,15.96
2018-03-18T21:48:52.689Z,16.00
2018-03-18T21:51:20.289Z,15.99
2018-03-18T21:53:47.869Z,16.01
2018-03-18T21:56:15.474Z,16.02
2018-03-18T21:58:43.578Z,15.97
2018-03-18T22:01:11.168Z,15.98
2018-03-18T22:03:38.721Z,15.94
2018-03-18T22:06:06.314Z,15.90
2018-03-18T22:08:33.910Z,15.86
2018-03-18T22:11:01.500Z,15.87
2018-03-18T22:13:29.072Z,15.77
2018-03-18T22:15:56.661Z,15.84
2018-03-18T22:18:24.206Z,15.87
2018-03-18T22:20:51.954Z,15.85
2018-03-18T22:23:19.661Z,15.87
2018-03-18T22:25:47.752Z,15.89
2018-03-18T22:28:15.335Z,15.91
2018-03-18T22:30:43.523Z,15.91
2018-03-18T22:33:11.100Z,15.91
2018-03-18T22:35:38.644Z,15.88
2018-03-18T22:38:06.244Z,15.84
2018-03-18T22:40:34.040Z,15.79
2018-03-18T22:43:02.441Z,15.80
2018-03-18T22:45:30.247Z,15.78
2018-03-18T22:47:58.136Z,15.71
2018-03-18T22:50:25.711Z,15.68
2018-03-18T22:52:53.321Z,15.62
2018-03-18T22:55:20.903Z,15.68
2018-03-18T22:57:48.444Z,15.57
2018-03-18T23:00:18.895Z,15.56
2018-03-18T23:02:46.439Z,15.59
2018-03-18T23:05:14.044Z,15.53
2018-03-18T23:07:41.870Z,15.49
2018-03-18T23:10:10.036Z,15.55
2018-03-18T23:12:37.648Z,15.57
2018-03-18T23:15:05.422Z,15.56
2018-03-18T23:17:33.323Z,15.57
2018-03-18T23:20:00.869Z,15.58
2018-03-18T23:22:28.468Z,15.56
2018-03-18T23:24:56.016Z,15.55
2018-03-18T23:27:23.563Z,15.54
2018-03-18T23:29:51.139Z,15.45
2018-03-18T23:32:18.675Z,15.49
2018-03-18T23:34:46.250Z,15.45
2018-03-18T23:37:13.835Z,15.43
2018-03-18T23:39:41.428Z,15.38
2018-03-18T23:42:09.020Z,15.38
2018-03-18T23:44:36.623Z,15.39
2018-03-18T23:47:04.185Z,15.41
2018-03-18T23:49:31.731Z,15.36
2018-03-18T23:51:59.328Z,15.34
2018-03-18T23:54:26.872Z,15.34
2018-03-18T23:56:54.457Z,15.35
2018-03-18T23:59:22.551Z,15.36
